createdAt,value
2023-04-15T00:02:15.344Z,14.29
2023-04-15T00:04:44.731Z,14.23
2023-04-15T00:07:15.835Z,14.11
2023-04-15T00:09:45.714Z,14.06
2023-04-15T00:12:15.672Z,14.02
2023-04-15T00:14:44.834Z,14.03
2023-04-15T00:17:14.454Z,14.07
2023-04-15T00:19:44.288Z,14.08
2023-04-15T00:22:13.745Z,14.12
2023-04-15T00:24:43.885Z,14.11
2023-04-15T00:27:14.792Z,14.04
2023-04-15T00:29:44.138Z,14.02
2023-04-15T00:32:13.340Z,14.05
2023-04-15T00:34:42.743Z,14.05
2023-04-15T00:37:12.133Z,14.06
2023-04-15T00:39:41.343Z,14.06
2023-04-15T00:42:11.439Z,14.05
2023-04-15T00:44:40.760Z,14.04
2023-04-15T00:47:11.406Z,14.01
2023-04-15T00:49:40.936Z,13.96
2023-04-15T00:52:10.385Z,13.82
2023-04-15T00:54:40.203Z,13.69
2023-04-15T00:57:09.578Z,13.62
2023-04-15T00:59:39.071Z,13.56
2023-04-15T01:02:08.789Z,13.52
2023-04-15T01:04:38.368Z,13.49
2023-04-15T01:07:09.383Z,13.47
2023-04-15T01:09:39.125Z,13.47
2023-04-15T01:12:10.919Z,13.45
2023-04-15T01:14:40.623Z,13.44
2023-04-15T01:17:09.756Z,13.42
2023-04-15T01:19:40.175Z,13.40
2023-04-15T01:22:10.160Z,13.32
2023-04-15T01:24:39.724Z,13.22
2023-04-15T01:27:14.353Z,13.23
2023-04-15T01:29:46.670Z,13.28
2023-04-15T01:32:16.013Z,13.31
2023-04-15T01:34:45.733Z,13.34
2023-04-15T01:37:16.051Z,13.35
2023-04-15T01:39:45.845Z,13.33
2023-04-15T01:42:15.367Z,13.20
2023-04-15T01:44:45.258Z,13.09
2023-04-15T01:47:15.265Z,13.07
2023-04-15T01:49:46.101Z,13.09
2023-04-15T01:52:15.481Z,13.11
2023-04-15T01:54:45.351Z,13.13
2023-04-15T01:57:16.849Z,13.14
2023-04-15T01:59:46.567Z,13.12
2023-04-15T02:02:15.703Z,13.10
2023-04-15T02:04:44.976Z,13.02
2023-04-15T02:07:14.738Z,13.01
2023-04-15T02:09:45.643Z,13.04
2023-04-15T02:12:15.289Z,13.04
2023-04-15T02:14:44.445Z,13.01
2023-04-15T02:17:13.636Z,13.05
2023-04-15T02:19:42.933Z,13.12
2023-04-15T02:22:17.759Z,13.16
2023-04-15T02:24:48.766Z,13.19
2023-04-15T02:27:18.931Z,13.21
2023-04-15T02:29:50.476Z,13.22
2023-04-15T02:32:22.846Z,13.23
2023-04-15T02:34:53.571Z,13.22
2023-04-15T02:37:22.855Z,13.19
2023-04-15T02:39:52.208Z,13.16
2023-04-15T02:42:22.240Z,13.13
2023-04-15T02:44:51.272Z,13.11
2023-04-15T02:47:20.727Z,13.08
2023-04-15T02:49:50.671Z,13.09
2023-04-15T02:52:19.951Z,13.11
2023-04-15T02:54:51.768Z,13.11
2023-04-15T02:57:21.138Z,13.12
2023-04-15T02:59:50.262Z,13.13
2023-04-15T03:02:22.326Z,13.10
2023-04-15T03:04:51.779Z,13.07
2023-04-15T03:07:20.982Z,13.06
2023-04-15T03:09:50.170Z,13.06
2023-04-15T03:12:19.477Z,13.08
2023-04-15T03:14:48.721Z,13.01
2023-04-15T03:17:17.918Z,12.94
2023-04-15T03:19:47.258Z,12.93
2023-04-15T03:22:17.911Z,12.97
2023-04-15T03:24:47.161Z,12.99
2023-04-15T03:27:16.563Z,13.04
2023-04-15T03:29:45.753Z,13.05
2023-04-15T03:32:16.400Z,13.03
2023-04-15T03:34:45.866Z,12.95
2023-04-15T03:37:15.526Z,12.88
2023-04-15T03:39:46.247Z,12.83
2023-04-15T03:42:15.501Z,12.81
2023-04-15T03:44:44.548Z,12.75
2023-04-15T03:47:14.319Z,12.65
2023-04-15T03:49:46.275Z,12.53
2023-04-15T03:52:16.053Z,12.44
2023-04-15T03:54:45.493Z,12.40
2023-04-15T03:57:15.808Z,12.37
2023-04-15T03:59:45.425Z,12.35
2023-04-15T04:02:15.093Z,12.28
2023-04-15T04:04:44.449Z,12.33
2023-04-15T04:07:17.931Z,12.39
2023-04-15T04:09:47.534Z,12.48
2023-04-15T04:12:18.875Z,12.57
2023-04-15T04:14:50.347Z,12.62
2023-04-15T04:17:20.477Z,12.69
2023-04-15T04:19:49.867Z,12.75
2023-04-15T04:22:22.289Z,12.78
2023-04-15T04:24:55.318Z,12.80
2023-04-15T04:27:27.338Z,12.81
2023-04-15T04:29:56.577Z,12.81
2023-04-15T04:32:26.020Z,12.80
2023-04-15T04:34:55.491Z,12.83
2023-04-15T04:37:25.301Z,12.84
2023-04-15T04:39:54.620Z,12.80
2023-04-15T04:42:24.080Z,12.75
2023-04-15T04:44:53.450Z,12.66
2023-04-15T04:48:09.763Z,12.61
2023-04-15T04:50:23.754Z,12.65
2023-04-15T04:52:54.026Z,12.77
2023-04-15T04:55:23.214Z,12.88
2023-04-15T04:57:52.764Z,12.98
2023-04-15T05:00:22.337Z,13.05
2023-04-15T05:02:55.141Z,13.08
2023-04-15T05:05:24.941Z,13.11
2023-04-15T05:07:54.258Z,13.11
2023-04-15T05:10:23.757Z,13.09
2023-04-15T05:12:53.004Z,13.05
2023-04-15T05:15:22.933Z,12.94
2023-04-15T05:17:52.751Z,12.85
2023-04-15T05:20:22.013Z,12.79
2023-04-15T05:22:51.818Z,12.70
2023-04-15T05:25:22.031Z,12.64
2023-04-15T05:27:51.591Z,12.72
2023-04-15T05:30:21.776Z,12.86
2023-04-15T05:32:53.194Z,13.02
2023-04-15T05:35:22.798Z,13.09
2023-04-15T05:37:52.023Z,13.09
2023-04-15T05:40:22.279Z,13.14
2023-04-15T05:42:51.891Z,13.20
2023-04-15T05:45:21.576Z,13.28
2023-04-15T05:47:53.729Z,13.36
2023-04-15T05:50:23.078Z,13.42
2023-04-15T05:52:58.225Z,13.47
2023-04-15T05:55:28.477Z,13.50
2023-04-15T05:58:03.523Z,13.50
2023-04-15T06:00:35.926Z,13.42
2023-04-15T06:03:05.895Z,13.37
2023-04-15T06:05:35.506Z,13.36
2023-04-15T06:08:04.826Z,13.37
2023-04-15T06:10:36.072Z,13.42
2023-04-15T06:13:07.384Z,13.49
2023-04-15T06:15:37.520Z,13.58
2023-04-15T06:18:07.243Z,13.66
2023-04-15T06:20:37.181Z,13.68
2023-04-15T06:23:06.650Z,13.74
2023-04-15T06:25:36.282Z,13.86
2023-04-15T06:28:05.978Z,13.92
2023-04-15T06:30:36.587Z,13.98
2023-04-15T06:33:06.916Z,14.06
2023-04-15T06:35:36.044Z,14.15
2023-04-15T06:38:06.102Z,14.22
2023-04-15T06:40:35.470Z,14.29
2023-04-15T06:43:05.029Z,14.37
2023-04-15T06:45:34.559Z,14.44
2023-04-15T06:48:04.346Z,14.43
2023-04-15T06:50:35.352Z,14.33
2023-04-15T06:53:04.655Z,14.27
2023-04-15T06:55:33.928Z,14.30
2023-04-15T06:58:03.600Z,14.39
2023-04-15T07:00:36.831Z,14.48
2023-04-15T07:03:09.570Z,14.50
2023-04-15T07:05:39.174Z,14.46
2023-04-15T07:08:08.478Z,14.39
2023-04-15T07:10:38.181Z,14.35
2023-04-15T07:13:08.408Z,14.42
2023-04-15T07:15:37.808Z,14.53
2023-04-15T07:18:07.150Z,14.61
2023-04-15T07:20:36.555Z,14.69
2023-04-15T07:23:06.085Z,14.78
2023-04-15T07:25:35.318Z,14.85
2023-04-15T07:28:05.149Z,14.92
2023-04-15T07:30:35.278Z,14.98
2023-04-15T07:33:04.618Z,15.04
2023-04-15T07:35:33.857Z,15.09
2023-04-15T07:38:08.058Z,15.14
2023-04-15T07:40:37.374Z,15.17
2023-04-15T07:43:06.933Z,15.21
2023-04-15T07:45:36.324Z,15.27
2023-04-15T07:48:07.865Z,15.34
2023-04-15T07:50:37.641Z,15.37
2023-04-15T07:53:06.974Z,15.40
2023-04-15T07:55:36.211Z,15.45
2023-04-15T07:58:05.558Z,15.50
2023-04-15T08:00:35.774Z,15.54
2023-04-15T08:03:07.921Z,15.59
2023-04-15T08:05:37.347Z,15.63
2023-04-15T08:08:07.008Z,15.53
2023-04-15T08:10:38.096Z,15.58
2023-04-15T08:13:07.720Z,15.68
2023-04-15T08:15:37.517Z,15.76
2023-04-15T08:18:07.963Z,15.83
2023-04-15T08:20:37.964Z,15.92
2023-04-15T08:23:07.127Z,16.02
2023-04-15T08:25:36.640Z,16.09
2023-04-15T08:28:07.477Z,16.14
2023-04-15T08:30:36.665Z,16.20
2023-04-15T08:33:06.288Z,16.26
2023-04-15T08:35:35.997Z,16.32
2023-04-15T08:38:05.159Z,16.38
2023-04-15T08:40:42.590Z,16.43
2023-04-15T08:43:17.195Z,16.41
2023-04-15T08:45:49.360Z,16.45
2023-04-15T08:48:19.396Z,16.46
2023-04-15T08:50:49.571Z,16.39
2023-04-15T08:53:19.241Z,16.38
2023-04-15T08:55:53.127Z,16.44
2023-04-15T08:58:22.412Z,16.47
2023-04-15T09:00:52.286Z,16.51
2023-04-15T09:03:23.224Z,16.55
2023-04-15T09:05:53.386Z,16.60
2023-04-15T09:08:22.527Z,16.70
2023-04-15T09:10:52.060Z,16.69
2023-04-15T09:13:21.495Z,16.75
2023-04-15T09:15:52.350Z,16.80
2023-04-15T09:18:32.918Z,16.79
2023-04-15T09:21:13.362Z,16.77
2023-04-15T09:23:56.225Z,16.85
2023-04-15T09:26:36.602Z,16.90
2023-04-15T09:29:07.554Z,16.94
2023-04-15T09:31:38.881Z,16.93
2023-04-15T09:34:08.385Z,16.91
2023-04-15T09:36:54.241Z,16.95
2023-04-15T09:39:27.449Z,16.92
2023-04-15T09:42:07.150Z,16.94
2023-04-15T09:44:36.354Z,17.03
2023-04-15T09:47:06.404Z,17.08
2023-04-15T09:49:35.900Z,17.13
2023-04-15T09:52:06.540Z,17.15
2023-04-15T09:54:37.895Z,17.15
2023-04-15T09:57:09.396Z,17.17
2023-04-15T09:59:40.047Z,17.17
2023-04-15T10:02:10.995Z,17.21
2023-04-15T10:04:42.106Z,17.30
2023-04-15T10:07:13.819Z,17.39
2023-04-15T10:09:46.461Z,17.50
2023-04-15T10:12:19.363Z,17.61
2023-04-15T10:14:56.670Z,17.68
2023-04-15T10:17:31.187Z,17.67
2023-04-15T10:20:05.167Z,17.63
2023-04-15T10:22:35.670Z,17.62
2023-04-15T10:25:07.646Z,17.65
2023-04-15T10:27:37.362Z,17.75
2023-04-15T10:30:09.135Z,17.86
2023-04-15T10:32:39.949Z,17.97
2023-04-15T10:35:10.706Z,18.01
2023-04-15T10:37:40.028Z,17.98
2023-04-15T10:40:32.772Z,18.01
2023-04-15T10:43:04.900Z,18.10
2023-04-15T10:45:37.352Z,18.12
2023-04-15T10:48:08.812Z,18.08
2023-04-15T10:50:38.893Z,18.09
2023-04-15T10:53:11.413Z,18.06
2023-04-15T10:55:40.877Z,18.05
2023-04-15T10:58:11.092Z,18.11
2023-04-15T11:00:40.754Z,18.19
2023-04-15T11:03:11.700Z,18.25
2023-04-15T11:05:54.139Z,18.27
2023-04-15T11:08:59.800Z,18.29
2023-04-15T11:12:07.998Z,18.32
2023-04-15T11:14:43.030Z,18.39
2023-04-15T11:17:12.990Z,18.42
2023-04-15T11:19:45.258Z,18.46
2023-04-15T11:22:15.182Z,18.53
2023-04-15T11:24:50.406Z,18.60
2023-04-15T11:27:26.878Z,18.70
2023-04-15T11:29:56.151Z,18.85
2023-04-15T11:32:25.599Z,18.96
2023-04-15T11:34:58.054Z,19.07
2023-04-15T11:37:33.117Z,19.08
2023-04-15T11:40:04.907Z,18.94
2023-04-15T11:42:48.644Z,18.95
2023-04-15T11:45:19.928Z,19.07
2023-04-15T11:47:49.385Z,19.22
2023-04-15T11:50:23.137Z,19.37
2023-04-15T11:52:57.366Z,19.49
2023-04-15T11:55:27.417Z,19.55
2023-04-15T11:58:10.403Z,19.64
2023-04-15T12:00:40.742Z,19.78
2023-04-15T12:03:20.316Z,19.69
2023-04-15T12:06:17.266Z,19.56
2023-04-15T12:09:03.251Z,19.68
2023-04-15T12:11:38.067Z,19.90
2023-04-15T12:14:10.828Z,20.04
2023-04-15T12:16:48.823Z,20.16
2023-04-15T12:19:23.740Z,20.27
2023-04-15T12:21:54.492Z,20.22
2023-04-15T12:24:23.681Z,20.29
2023-04-15T12:26:56.737Z,20.48
2023-04-15T12:29:28.225Z,20.51
2023-04-15T12:31:58.788Z,20.43
2023-04-15T12:34:30.610Z,20.56
2023-04-15T12:37:06.281Z,20.62
2023-04-15T12:39:38.738Z,20.66
2023-04-15T12:42:09.999Z,20.81
2023-04-15T12:44:42.625Z,20.90
2023-04-15T12:47:13.287Z,20.92
2023-04-15T12:49:45.303Z,20.99
2023-04-15T12:52:16.181Z,21.12
2023-04-15T12:54:46.358Z,21.25
2023-04-15T12:57:15.610Z,21.36
2023-04-15T12:59:44.722Z,21.47
2023-04-15T13:02:15.248Z,21.66
2023-04-15T13:04:45.081Z,21.78
2023-04-15T13:07:15.332Z,21.72
2023-04-15T13:09:44.616Z,21.58
2023-04-15T13:12:14.814Z,21.64
2023-04-15T13:14:44.055Z,21.82
2023-04-15T13:17:13.610Z,21.72
2023-04-15T13:19:42.862Z,21.58
2023-04-15T13:22:12.392Z,21.54
2023-04-15T13:24:41.660Z,21.46
2023-04-15T13:27:11.113Z,21.46
2023-04-15T13:29:40.784Z,21.47
2023-04-15T13:32:09.912Z,21.55
2023-04-15T13:34:39.311Z,21.50
2023-04-15T13:37:08.945Z,21.35
2023-04-15T13:39:38.209Z,21.39
2023-04-15T13:42:07.442Z,21.64
2023-04-15T13:44:36.904Z,21.83
2023-04-15T13:47:06.308Z,21.96
2023-04-15T13:49:37.078Z,22.16
2023-04-15T13:52:06.789Z,22.39
2023-04-15T13:54:37.481Z,22.58
2023-04-15T13:57:07.684Z,22.58
2023-04-15T13:59:36.913Z,22.61
2023-04-15T14:02:06.867Z,22.61
2023-04-15T14:04:36.540Z,22.48
2023-04-15T14:07:06.382Z,22.39
2023-04-15T14:09:42.996Z,22.51
2023-04-15T14:12:12.777Z,22.62
2023-04-15T14:14:42.035Z,22.56
2023-04-15T14:17:11.427Z,22.49
2023-04-15T14:19:41.243Z,22.46
2023-04-15T14:22:11.313Z,22.46
2023-04-15T14:24:48.793Z,22.26
2023-04-15T14:27:18.368Z,22.22
2023-04-15T14:29:47.857Z,22.27
2023-04-15T14:32:17.402Z,22.25
2023-04-15T14:34:47.175Z,22.21
2023-04-15T14:37:17.238Z,22.02
2023-04-15T14:39:46.802Z,21.82
2023-04-15T14:42:17.294Z,21.55
2023-04-15T14:44:47.067Z,21.45
2023-04-15T14:47:16.610Z,21.37
2023-04-15T14:49:46.044Z,21.30
2023-04-15T14:52:15.689Z,21.43
2023-04-15T14:54:45.216Z,21.89
2023-04-15T14:57:14.561Z,22.40
2023-04-15T14:59:44.661Z,22.86
2023-04-15T15:02:26.273Z,23.34
2023-04-15T15:05:06.167Z,23.66
2023-04-15T15:07:37.450Z,23.90
2023-04-15T15:10:09.008Z,24.19
2023-04-15T15:12:38.951Z,24.43
2023-04-15T15:15:25.013Z,24.56
2023-04-15T15:17:55.178Z,24.81
2023-04-15T15:20:25.455Z,25.15
2023-04-15T15:22:56.251Z,25.23
2023-04-15T15:25:27.046Z,25.25
2023-04-15T15:27:57.620Z,25.31
2023-04-15T15:30:30.453Z,25.54
2023-04-15T15:33:06.746Z,25.96
2023-04-15T15:35:36.545Z,26.42
2023-04-15T15:38:11.592Z,26.50
2023-04-15T15:40:42.685Z,26.19
2023-04-15T15:43:12.310Z,25.52
2023-04-15T15:45:43.291Z,25.28
2023-04-15T15:48:13.245Z,25.11
2023-04-15T15:50:42.500Z,24.94
2023-04-15T15:53:13.169Z,24.77
2023-04-15T15:55:43.097Z,24.64
2023-04-15T15:58:12.681Z,24.47
2023-04-15T16:00:42.510Z,24.14
2023-04-15T16:03:12.041Z,23.71
2023-04-15T16:05:41.217Z,23.38
2023-04-15T16:08:10.645Z,23.20
2023-04-15T16:10:40.432Z,23.14
2023-04-15T16:13:10.359Z,23.30
2023-04-15T16:15:39.516Z,23.42
2023-04-15T16:18:08.911Z,23.39
2023-04-15T16:20:39.156Z,23.35
2023-04-15T16:23:14.160Z,23.45
2023-04-15T16:25:44.753Z,23.54
2023-04-15T16:28:25.789Z,23.63
2023-04-15T16:30:57.582Z,23.57
2023-04-15T16:33:27.625Z,23.47
2023-04-15T16:35:57.296Z,23.28
2023-04-15T16:38:26.920Z,23.05
2023-04-15T16:41:00.352Z,22.86
2023-04-15T16:43:29.699Z,22.71
2023-04-15T16:45:59.336Z,22.55
2023-04-15T16:48:28.988Z,22.41
2023-04-15T16:50:59.766Z,22.27
2023-04-15T16:53:29.705Z,22.13
2023-04-15T16:55:59.231Z,22.02
2023-04-15T16:58:28.666Z,21.87
2023-04-15T17:00:58.216Z,21.72
2023-04-15T17:03:28.079Z,21.59
2023-04-15T17:05:57.393Z,21.45
2023-04-15T17:08:26.621Z,21.30
2023-04-15T17:10:57.343Z,21.15
2023-04-15T17:13:27.378Z,21.00
2023-04-15T17:15:56.671Z,20.83
2023-04-15T17:18:26.645Z,20.68
2023-04-15T17:20:56.102Z,20.52
2023-04-15T17:23:26.595Z,20.38
2023-04-15T17:25:55.983Z,20.26
2023-04-15T17:28:25.512Z,20.06
2023-04-15T17:30:54.712Z,19.83
2023-04-15T17:33:55.102Z,19.64
2023-04-15T17:36:13.957Z,19.51
2023-04-15T17:38:43.260Z,19.39
2023-04-15T17:41:12.778Z,19.28
2023-04-15T17:43:43.276Z,19.18
2023-04-15T17:46:12.960Z,19.09
2023-04-15T17:48:42.172Z,18.99
2023-04-15T17:51:12.359Z,18.84
2023-04-15T17:53:41.647Z,18.69
2023-04-15T17:56:10.932Z,18.58
2023-04-15T17:58:40.189Z,18.50
2023-04-15T18:01:09.595Z,18.43
2023-04-15T18:03:39.070Z,18.35
2023-04-15T18:06:08.479Z,18.27
2023-04-15T18:08:37.830Z,18.20
2023-04-15T18:11:08.794Z,18.11
2023-04-15T18:13:38.343Z,18.06
2023-04-15T18:16:07.819Z,17.99
2023-04-15T18:18:38.316Z,17.94
2023-04-15T18:21:07.901Z,17.89
2023-04-15T18:23:38.660Z,17.83
2023-04-15T18:26:08.153Z,17.76
2023-04-15T18:28:39.198Z,17.65
2023-04-15T18:31:08.940Z,17.54
2023-04-15T18:33:39.215Z,17.49
2023-04-15T18:36:09.606Z,17.44
2023-04-15T18:38:38.886Z,17.40
2023-04-15T18:41:10.008Z,17.37
2023-04-15T18:43:39.924Z,17.34
2023-04-15T18:46:11.921Z,17.32
2023-04-15T18:48:41.336Z,17.28
2023-04-15T18:51:11.750Z,17.19
2023-04-15T18:53:42.032Z,17.01
2023-04-15T18:56:11.410Z,16.89
2023-04-15T18:59:28.173Z,16.89
2023-04-15T19:01:31.029Z,16.90
2023-04-15T19:04:01.058Z,16.90
2023-04-15T19:06:30.440Z,16.89
2023-04-15T19:08:59.612Z,16.87
2023-04-15T19:11:33.208Z,16.78
2023-04-15T19:14:03.327Z,16.64
2023-04-15T19:16:34.624Z,16.47
2023-04-15T19:19:06.027Z,16.36
2023-04-15T19:21:37.104Z,16.34
2023-04-15T19:24:08.934Z,16.37
2023-04-15T19:26:38.244Z,16.42
2023-04-15T19:29:08.558Z,16.46
2023-04-15T19:31:37.904Z,16.47
2023-04-15T19:34:07.996Z,16.46
2023-04-15T19:36:38.335Z,16.46
2023-04-15T19:39:08.154Z,16.45
2023-04-15T19:41:40.125Z,16.45
2023-04-15T19:44:12.455Z,16.42
2023-04-15T19:46:44.174Z,16.35
2023-04-15T19:49:13.627Z,16.30
2023-04-15T19:51:43.154Z,16.25
2023-04-15T19:54:12.399Z,16.25
2023-04-15T19:56:41.740Z,16.25
2023-04-15T19:59:12.277Z,16.25
2023-04-15T20:01:41.982Z,16.22
2023-04-15T20:04:11.714Z,16.16
2023-04-15T20:06:41.259Z,16.17
2023-04-15T20:09:11.508Z,16.19
2023-04-15T20:12:46.283Z,16.21
2023-04-15T20:14:30.688Z,16.22
2023-04-15T20:17:03.201Z,16.22
2023-04-15T20:19:33.689Z,16.22
2023-04-15T20:22:05.060Z,16.21
2023-04-15T20:24:35.394Z,16.20
2023-04-15T20:27:05.838Z,16.20
2023-04-15T20:29:37.348Z,16.18
2023-04-15T20:32:11.041Z,16.16
2023-04-15T20:34:40.768Z,16.15
2023-04-15T20:37:12.223Z,16.14
2023-04-15T20:39:42.391Z,16.12
2023-04-15T20:42:11.575Z,16.11
2023-04-15T20:44:40.773Z,16.11
2023-04-15T20:47:10.469Z,16.09
2023-04-15T20:49:40.103Z,16.09
2023-04-15T20:52:09.707Z,16.08
2023-04-15T20:54:39.205Z,16.09
2023-04-15T20:57:08.536Z,16.08
2023-04-15T20:59:38.497Z,16.06
2023-04-15T21:02:10.005Z,16.06
2023-04-15T21:04:39.447Z,16.05
2023-04-15T21:07:09.450Z,16.04
2023-04-15T21:09:40.795Z,16.02
2023-04-15T21:12:10.594Z,15.99
2023-04-15T21:14:40.030Z,15.99
2023-04-15T21:17:11.117Z,16.01
2023-04-15T21:19:40.836Z,15.99
2023-04-15T21:22:10.010Z,15.97
2023-04-15T21:24:39.454Z,15.95
2023-04-15T21:27:09.079Z,15.91
2023-04-15T21:29:39.884Z,15.87
2023-04-15T21:32:09.209Z,15.86
2023-04-15T21:34:38.499Z,15.86
2023-04-15T21:37:08.379Z,15.85
2023-04-15T21:39:38.809Z,15.83
2023-04-15T21:42:08.564Z,15.78
2023-04-15T21:44:38.512Z,15.73
2023-04-15T21:47:08.706Z,15.68
2023-04-15T21:49:38.476Z,15.67
2023-04-15T21:52:08.534Z,15.66
2023-04-15T21:54:38.692Z,15.65
2023-04-15T21:57:08.777Z,15.64
2023-04-15T21:59:38.509Z,15.63
2023-04-15T22:02:08.692Z,15.61
2023-04-15T22:04:38.719Z,15.60
2023-04-15T22:07:09.296Z,15.59
2023-04-15T22:09:38.805Z,15.58
2023-04-15T22:12:09.170Z,15.58
2023-04-15T22:14:38.958Z,15.55
2023-04-15T22:17:08.820Z,15.51
2023-04-15T22:19:38.787Z,15.51
2023-04-15T22:22:11.763Z,15.53
2023-04-15T22:24:41.088Z,15.53
2023-04-15T22:27:10.633Z,15.52
2023-04-15T22:29:39.884Z,15.51
2023-04-15T22:32:09.338Z,15.49
2023-04-15T22:34:39.835Z,15.47
2023-04-15T22:37:09.251Z,15.43
2023-04-15T22:39:39.960Z,15.41
2023-04-15T22:42:09.532Z,15.38
2023-04-15T22:44:38.995Z,15.37
2023-04-15T22:47:08.807Z,15.34
2023-04-15T22:49:38.993Z,15.33
2023-04-15T22:52:14.514Z,15.33
2023-04-15T22:54:49.566Z,15.34
2023-04-15T22:57:19.050Z,15.38
2023-04-15T22:59:48.243Z,15.39
2023-04-15T23:02:17.692Z,15.37
2023-04-15T23:04:47.505Z,15.35
2023-04-15T23:07:16.848Z,15.31
2023-04-15T23:09:45.983Z,15.30
2023-04-15T23:12:15.606Z,15.28
2023-04-15T23:14:45.403Z,15.26
2023-04-15T23:17:14.657Z,15.26
2023-04-15T23:19:43.915Z,15.23
2023-04-15T23:22:13.273Z,15.20
2023-04-15T23:24:42.773Z,15.18
2023-04-15T23:27:11.980Z,15.14
2023-04-15T23:29:41.302Z,15.10
2023-04-15T23:32:10.489Z,15.08
2023-04-15T23:34:40.093Z,15.04
2023-04-15T23:37:09.398Z,15.02
2023-04-15T23:39:39.532Z,15.01
2023-04-15T23:42:09.538Z,15.00
2023-04-15T23:44:39.496Z,14.99
2023-04-15T23:47:10.739Z,14.99
2023-04-15T23:49:41.352Z,14.97
2023-04-15T23:52:26.410Z,14.96
2023-04-15T23:54:55.546Z,14.97
2023-04-15T23:57:24.624Z,14.99
2023-04-15T23:59:54.591Z,14.98
